Time;durP1;ratioP1;P1;durP2;ratioP2;P2;SDS_P1;SDS_P2;PMS_P1;PMS_P2;Temp;Humidity;BMP_temperature;BMP_pressure;BME280_temperature;BME280_humidity;BME280_pressure;Samples;Min_cycle;Max_cycle;Signal;HPM_P1;HPM_P2
2022/10/28 00:01:15;;;;;;;0.00;0.00;;;16.30;99.90;;;;;;5078890;28;20052;-80
2022/10/28 00:03:43;;;;;;;0.10;0.10;;;16.30;99.90;;;;;;5079153;28;20144;-80
2022/10/28 00:06:11;;;;;;;13.65;1.08;;;16.40;99.90;;;;;;5096357;28;20036;-81
2022/10/28 00:08:38;;;;;;;0.00;0.00;;;16.30;99.90;;;;;;5095923;28;20144;-80
2022/10/28 00:11:25;;;;;;;0.00;0.00;;;16.30;99.90;;;;;;5096143;28;20072;-80
2022/10/28 00:13:56;;;;;;;0.38;0.30;;;16.30;99.90;;;;;;5095716;28;20075;-80
2022/10/28 00:16:28;;;;;;;0.35;0.15;;;16.30;99.90;;;;;;5096426;28;20056;-80
2022/10/28 00:18:54;;;;;;;0.00;0.00;;;16.30;99.90;;;;;;5077561;28;20087;-80
2022/10/28 00:21:25;;;;;;;0.40;0.10;;;16.30;99.90;;;;;;5078439;28;20044;-80
2022/10/28 00:23:51;;;;;;;0.05;0.05;;;16.40;99.90;;;;;;5078702;28;20048;-80
2022/10/28 00:26:19;;;;;;;0.00;0.00;;;16.30;99.90;;;;;;5078627;28;20087;-80
2022/10/28 00:28:55;;;;;;;2.92;0.55;;;16.30;99.90;;;;;;5096018;28;20078;-80
2022/10/28 00:31:23;;;;;;;0.00;0.00;;;16.30;99.90;;;;;;5078680;28;20056;-80
2022/10/28 00:33:49;;;;;;;0.00;0.00;;;16.20;99.90;;;;;;5078532;28;20055;-80
2022/10/28 00:36:14;;;;;;;0.00;0.00;;;16.20;99.90;;;;;;5095189;28;20044;-80
2022/10/28 00:38:41;;;;;;;0.22;0.22;;;16.20;99.90;;;;;;5095036;28;20129;-80
2022/10/28 00:41:08;;;;;;;0.03;0.03;;;16.20;99.90;;;;;;5094709;28;20056;-80
2022/10/28 00:43:35;;;;;;;0.10;0.03;;;16.20;99.90;;;;;;5078418;28;20048;-80
2022/10/28 00:46:01;;;;;;;0.00;0.00;;;16.30;99.90;;;;;;5078309;28;20419;-80
2022/10/28 00:48:28;;;;;;;3.47;0.47;;;16.20;99.90;;;;;;5078501;28;20056;-80
2022/10/28 00:50:54;;;;;;;0.00;0.00;;;16.20;99.90;;;;;;5078165;28;20053;-80
2022/10/28 00:53:28;;;;;;;0.00;0.00;;;16.30;99.90;;;;;;5078058;28;20052;-80
2022/10/28 00:55:55;;;;;;;0.63;0.20;;;16.30;99.90;;;;;;5095152;28;20124;-80
2022/10/28 00:58:24;;;;;;;0.13;0.13;;;16.20;99.90;;;;;;5078192;28;20048;-81
2022/10/28 01:00:50;;;;;;;0.22;0.20;;;16.20;99.90;;;;;;5094586;28;20509;-80
2022/10/28 01:03:16;;;;;;;0.20;0.20;;;16.20;99.90;;;;;;5077894;28;20083;-81
2022/10/28 01:05:45;;;;;;;0.10;0.10;;;16.20;99.90;;;;;;5094774;28;20127;-80
2022/10/28 01:08:10;;;;;;;0.00;0.00;;;16.20;99.90;;;;;;5077980;28;20446;-80
2022/10/28 01:10:48;;;;;;;0.00;0.00;;;16.20;99.90;;;;;;5095129;28;20055;-80
2022/10/28 01:13:33;;;;;;;4.97;0.35;;;16.20;99.90;;;;;;5077828;28;20048;-81
2022/10/28 01:16:15;;;;;;;0.82;0.30;;;16.10;99.90;;;;;;5094784;28;20055;-80
2022/10/28 01:19:01;;;;;;;2.17;0.63;;;16.20;99.90;;;;;;5094408;28;20055;-80
2022/10/28 01:21:36;;;;;;;0.00;0.00;;;16.10;99.90;;;;;;5077789;28;20392;-81
2022/10/28 01:24:12;;;;;;;;;;;16.10;99.90;;;;;;5078357;28;20146;-80
2022/10/28 01:26:51;;;;;;;0.22;0.20;;;16.10;99.90;;;;;;5094217;28;20337;-80
2022/10/28 01:29:28;;;;;;;0.90;0.38;;;16.20;99.90;;;;;;5093987;28;20044;-80
2022/10/28 01:32:00;;;;;;;0.10;0.00;;;16.20;99.90;;;;;;5094152;28;20484;-80
2022/10/28 01:34:53;;;;;;;0.00;0.00;;;16.20;99.90;;;;;;5094348;28;20051;-80
2022/10/28 01:37:29;;;;;;;0.00;0.00;;;16.10;99.90;;;;;;5077397;28;20495;-80
2022/10/28 01:40:06;;;;;;;0.00;0.00;;;16.10;99.90;;;;;;5094668;28;20047;-80
2022/10/28 01:43:02;;;;;;;1.10;0.63;;;16.10;99.90;;;;;;5093595;28;20058;-80
2022/10/28 01:45:36;;;;;;;0.00;0.00;;;16.10;99.90;;;;;;5093987;28;20048;-80
2022/10/28 01:48:12;;;;;;;0.00;0.00;;;16.10;99.90;;;;;;5094547;28;20043;-80
2022/10/28 01:50:58;;;;;;;1.25;0.03;;;16.00;99.90;;;;;;5094130;28;20152;-80
2022/10/28 01:53:29;;;;;;;0.10;0.10;;;16.00;99.90;;;;;;5093779;28;20066;-80
2022/10/28 01:56:01;;;;;;;0.08;0.00;;;16.00;99.90;;;;;;5077121;28;20117;-80
2022/10/28 01:58:30;;;;;;;0.00;0.00;;;15.90;99.90;;;;;;5093780;28;20472;-81
2022/10/28 02:00:57;;;;;;;0.00;0.00;;;15.80;99.90;;;;;;5094187;28;20098;-80
2022/10/28 02:03:24;;;;;;;0.00;0.00;;;15.70;99.90;;;;;;5076884;28;20139;-81
2022/10/28 02:05:54;;;;;;;0.00;0.00;;;15.60;99.90;;;;;;5093638;28;20093;-81
2022/10/28 02:08:38;;;;;;;0.00;0.00;;;15.60;99.90;;;;;;5077413;28;20117;-80
2022/10/28 02:11:14;;;;;;;0.00;0.00;;;15.50;99.90;;;;;;5076865;28;20055;-80
2022/10/28 02:13:53;;;;;;;0.05;0.05;;;15.40;99.90;;;;;;5076753;28;20497;-80
2022/10/28 02:16:56;;;;;;;0.00;0.00;;;15.30;99.90;;;;;;5093684;28;20143;-81
2022/10/28 02:19:31;;;;;;;0.00;0.00;;;15.30;99.90;;;;;;5093267;28;20514;-80
2022/10/28 02:22:03;;;;;;;0.00;0.00;;;15.30;99.90;;;;;;5076720;28;20434;-80
2022/10/28 02:24:41;;;;;;;4.38;0.65;;;15.30;99.90;;;;;;5076573;28;20044;-80
2022/10/28 02:27:25;;;;;;;0.00;0.00;;;15.30;99.90;;;;;;5075987;28;20040;-80
2022/10/28 02:30:05;;;;;;;0.03;0.03;;;15.30;99.90;;;;;;5093686;28;20054;-81
2022/10/28 02:32:40;;;;;;;0.13;0.13;;;15.30;99.90;;;;;;5093568;28;20048;-80
2022/10/28 02:35:17;;;;;;;0.03;0.03;;;15.30;99.90;;;;;;5076449;28;20040;-80
2022/10/28 02:37:46;;;;;;;0.20;0.10;;;15.20;99.90;;;;;;5093053;28;20438;-80
2022/10/28 02:40:17;;;;;;;1.23;0.32;;;15.30;99.90;;;;;;5075649;28;20109;-80
2022/10/28 02:42:48;;;;;;;0.00;0.00;;;15.30;99.90;;;;;;5076204;28;20175;-80
2022/10/28 02:45:22;;;;;;;0.00;0.00;;;15.30;99.90;;;;;;5076345;28;20492;-80
2022/10/28 02:47:56;;;;;;;0.00;0.00;;;15.30;99.90;;;;;;5092846;28;20055;-80
2022/10/28 02:50:32;;;;;;;0.00;0.00;;;15.30;99.90;;;;;;5076107;28;20838;-81
2022/10/28 02:53:01;;;;;;;0.00;0.00;;;15.30;99.90;;;;;;5093242;28;20124;-80
2022/10/28 02:55:34;;;;;;;0.00;0.00;;;15.20;99.90;;;;;;5092839;28;20047;-80
2022/10/28 02:58:00;;;;;;;0.00;0.00;;;15.20;99.90;;;;;;5076547;28;20135;-81
2022/10/28 03:00:26;;;;;;;0.00;0.00;;;15.20;99.90;;;;;;5092912;28;20484;-81
2022/10/28 03:02:51;;;;;;;0.00;0.00;;;15.20;99.90;;;;;;5076167;28;20044;-81
2022/10/28 03:05:17;;;;;;;0.65;0.28;;;15.20;99.90;;;;;;5093062;28;20040;-81
2022/10/28 03:07:43;;;;;;;0.00;0.00;;;15.20;99.90;;;;;;5092623;28;20127;-80
2022/10/28 03:10:09;;;;;;;0.00;0.00;;;15.20;99.90;;;;;;5076170;28;20051;-80
2022/10/28 03:12:34;;;;;;;0.55;0.00;;;15.10;99.90;;;;;;5092810;28;20044;-80
2022/10/28 03:15:01;;;;;;;0.15;0.15;;;15.10;99.90;;;;;;5092683;28;20077;-80
2022/10/28 03:17:27;;;;;;;0.00;0.00;;;15.00;99.90;;;;;;5092956;28;20071;-81
2022/10/28 03:19:53;;;;;;;0.00;0.00;;;14.90;99.90;;;;;;5093213;28;20044;-80
2022/10/28 03:22:18;;;;;;;0.00;0.00;;;14.90;99.90;;;;;;5092707;28;20050;-81
2022/10/28 03:24:44;;;;;;;0.00;0.00;;;14.90;99.90;;;;;;5075681;28;20098;-81
2022/10/28 03:27:09;;;;;;;0.00;0.00;;;14.80;99.90;;;;;;5092633;28;20085;-81
2022/10/28 03:29:35;;;;;;;0.00;0.00;;;14.80;99.90;;;;;;5075982;28;20492;-80
2022/10/28 03:32:01;;;;;;;0.00;0.00;;;14.70;99.90;;;;;;5093261;28;20046;-80
2022/10/28 03:34:26;;;;;;;0.20;0.20;;;14.60;99.90;;;;;;5092635;28;20063;-81
2022/10/28 03:36:52;;;;;;;0.00;0.00;;;14.60;99.90;;;;;;5075906;28;20056;-81
2022/10/28 03:39:17;;;;;;;0.00;0.00;;;14.50;99.90;;;;;;5075887;28;20051;-81
2022/10/28 03:41:43;;;;;;;0.00;0.00;;;14.60;99.90;;;;;;5075534;28;20056;-80
2022/10/28 03:44:08;;;;;;;0.00;0.00;;;14.60;99.90;;;;;;5092536;28;20484;-81
2022/10/28 03:46:34;;;;;;;0.00;0.00;;;14.60;99.90;;;;;;5092034;28;20044;-80
2022/10/28 03:49:00;;;;;;;0.00;0.00;;;14.70;99.90;;;;;;5075734;28;20052;-81
2022/10/28 03:51:25;;;;;;;0.00;0.00;;;14.70;99.90;;;;;;5075416;28;20043;-81
2022/10/28 03:53:51;;;;;;;0.00;0.00;;;14.70;99.90;;;;;;5079251;28;20185;-81
2022/10/28 03:56:16;;;;;;;0.75;0.55;;;14.70;99.90;;;;;;5096298;28;20173;-80
2022/10/28 03:58:42;;;;;;;0.40;0.10;;;14.80;99.90;;;;;;5096096;28;20063;-81
2022/10/28 04:01:08;;;;;;;0.00;0.00;;;14.80;99.90;;;;;;5096842;28;20055;-81
2022/10/28 04:03:33;;;;;;;0.10;0.00;;;14.90;99.90;;;;;;5096114;28;20054;-80
2022/10/28 04:05:59;;;;;;;0.00;0.00;;;14.80;99.90;;;;;;5079436;28;20472;-81
2022/10/28 04:08:24;;;;;;;0.00;0.00;;;14.80;99.90;;;;;;5079520;28;20480;-81
2022/10/28 04:10:50;;;;;;;0.08;0.08;;;14.80;99.90;;;;;;5095886;28;20352;-81
2022/10/28 04:13:16;;;;;;;0.00;0.00;;;14.90;99.90;;;;;;5079044;28;20157;-81
2022/10/28 04:15:42;;;;;;;0.00;0.00;;;14.90;99.90;;;;;;5079149;28;20044;-81
2022/10/28 04:18:08;;;;;;;0.00;0.00;;;14.80;99.90;;;;;;5095441;28;20052;-81
2022/10/28 04:20:34;;;;;;;0.00;0.00;;;14.90;99.90;;;;;;5095336;28;20059;-81
2022/10/28 04:22:59;;;;;;;0.00;0.00;;;14.90;99.90;;;;;;5095469;28;20048;-81
2022/10/28 04:25:26;;;;;;;0.10;0.10;;;14.80;99.90;;;;;;5078790;28;20056;-81
2022/10/28 04:27:52;;;;;;;1.00;0.73;;;14.90;99.90;;;;;;5095011;28;20127;-81
2022/10/28 04:30:17;;;;;;;2.17;0.57;;;14.90;99.90;;;;;;5078617;28;20098;-81
2022/10/28 04:32:43;;;;;;;0.00;0.00;;;14.90;99.90;;;;;;5078963;28;20059;-81
2022/10/28 04:35:10;;;;;;;0.08;0.08;;;14.90;99.90;;;;;;5078915;28;20577;-81
2022/10/28 04:37:37;;;;;;;0.00;0.00;;;14.90;99.90;;;;;;5095716;28;20054;-81
2022/10/28 04:40:04;;;;;;;0.40;0.20;;;14.90;99.90;;;;;;5078496;28;20044;-81
2022/10/28 04:42:29;;;;;;;0.00;0.00;;;14.90;99.90;;;;;;5094781;28;20048;-81
2022/10/28 04:44:55;;;;;;;0.08;0.08;;;15.00;99.90;;;;;;5095632;28;20062;-81
2022/10/28 04:47:20;;;;;;;0.00;0.00;;;15.00;99.90;;;;;;5078541;28;20469;-81
2022/10/28 04:49:46;;;;;;;0.00;0.00;;;15.10;99.90;;;;;;5095150;28;20036;-81
2022/10/28 04:52:12;;;;;;;0.40;0.40;;;15.10;99.90;;;;;;5078412;28;20044;-81
2022/10/28 04:54:38;;;;;;;0.40;0.30;;;15.20;99.90;;;;;;5094927;28;20506;-81
2022/10/28 04:57:03;;;;;;;0.40;0.15;;;15.30;99.90;;;;;;5094963;28;20506;-81
2022/10/28 04:59:29;;;;;;;0.10;0.00;;;15.30;99.90;;;;;;5095726;28;20040;-81
2022/10/28 05:01:55;;;;;;;6.22;0.75;;;15.40;99.90;;;;;;5077953;28;20529;-81
2022/10/28 05:04:20;;;;;;;0.00;0.00;;;15.40;99.90;;;;;;5094338;28;20475;-81
2022/10/28 05:06:46;;;;;;;0.10;0.10;;;15.50;99.90;;;;;;5077970;28;20479;-81
2022/10/28 05:09:12;;;;;;;0.00;0.00;;;15.50;99.90;;;;;;5094970;28;20039;-81
2022/10/28 05:11:38;;;;;;;0.03;0.03;;;15.70;99.90;;;;;;5077918;28;20079;-81
2022/10/28 05:14:03;;;;;;;0.30;0.30;;;15.70;99.90;;;;;;5078426;28;20039;-82
2022/10/28 05:16:29;;;;;;;1.17;0.40;;;15.70;99.90;;;;;;5077770;28;20040;-81
2022/10/28 05:18:55;;;;;;;2.00;0.45;;;15.80;99.90;;;;;;5094641;28;20101;-81
2022/10/28 05:21:20;;;;;;;0.63;0.30;;;15.80;99.90;;;;;;5078000;28;20056;-82
2022/10/28 05:23:46;;;;;;;0.05;0.05;;;15.80;99.90;;;;;;5077741;28;20048;-81
2022/10/28 05:26:12;;;;;;;0.00;0.00;;;15.90;99.90;;;;;;5077412;28;20042;-81
2022/10/28 05:28:38;;;;;;;0.75;0.75;;;15.90;99.90;;;;;;5094020;28;20105;-82
2022/10/28 05:31:03;;;;;;;2.60;0.85;;;15.90;99.90;;;;;;5093914;28;20445;-82
2022/10/28 05:33:29;;;;;;;0.30;0.22;;;16.00;99.90;;;;;;5093920;28;20067;-82
2022/10/28 05:35:57;;;;;;;0.00;0.00;;;16.00;99.90;;;;;;5077044;28;20446;-81
2022/10/28 05:38:22;;;;;;;0.00;0.00;;;16.00;99.90;;;;;;5094093;28;20052;-82
2022/10/28 05:40:48;;;;;;;0.50;0.17;;;16.00;99.90;;;;;;5093689;28;20060;-81
2022/10/28 05:43:14;;;;;;;0.55;0.25;;;16.00;99.90;;;;;;5094920;28;20052;-81
2022/10/28 05:45:39;;;;;;;0.15;0.15;;;16.10;99.90;;;;;;5076997;28;20040;-81
2022/10/28 05:48:05;;;;;;;0.00;0.00;;;16.10;99.90;;;;;;5093690;28;20048;-82
2022/10/28 05:50:31;;;;;;;0.28;0.28;;;16.10;99.90;;;;;;5077102;28;20127;-82
2022/10/28 05:52:57;;;;;;;0.28;0.28;;;16.00;99.90;;;;;;5077048;28;20044;-82
2022/10/28 05:55:26;;;;;;;1.10;0.45;;;16.10;99.90;;;;;;5077170;28;20051;-82
2022/10/28 05:57:52;;;;;;;0.03;0.00;;;16.10;99.90;;;;;;5077229;28;20040;-82
2022/10/28 06:00:19;;;;;;;0.10;0.10;;;16.10;99.90;;;;;;5094058;28;20048;-82
2022/10/28 06:02:45;;;;;;;0.20;0.10;;;16.10;99.90;;;;;;5076822;28;20044;-82
2022/10/28 06:05:11;;;;;;;2.30;0.22;;;16.00;99.90;;;;;;5093383;28;20050;-82
2022/10/28 06:07:38;;;;;;;0.10;0.10;;;16.00;99.90;;;;;;5076054;28;20139;-81
2022/10/28 06:10:06;;;;;;;0.10;0.10;;;16.00;99.90;;;;;;5076925;28;20506;-82
2022/10/28 06:12:32;;;;;;;0.10;0.08;;;16.00;99.90;;;;;;5093736;28;20109;-82
2022/10/28 06:14:57;;;;;;;0.52;0.35;;;16.00;99.90;;;;;;5076726;28;20055;-82
2022/10/28 06:17:23;;;;;;;0.15;0.13;;;15.90;99.90;;;;;;5077003;28;20063;-82
2022/10/28 06:19:48;;;;;;;0.20;0.20;;;16.00;99.90;;;;;;5093114;28;20043;-82
2022/10/28 06:22:14;;;;;;;0.00;0.00;;;15.90;99.90;;;;;;5076544;28;20063;-82
2022/10/28 06:24:40;;;;;;;0.20;0.20;;;15.90;99.90;;;;;;5076984;28;20096;-82
2022/10/28 06:27:06;;;;;;;0.20;0.17;;;15.90;99.90;;;;;;5076394;28;20063;-82
2022/10/28 06:29:32;;;;;;;0.65;0.20;;;15.90;99.90;;;;;;5076568;28;20071;-82
2022/10/28 06:31:58;;;;;;;0.20;0.15;;;15.90;99.90;;;;;;5076454;28;20090;-82
2022/10/28 06:34:23;;;;;;;0.10;0.10;;;15.80;99.90;;;;;;5094115;28;20100;-81
2022/10/28 06:36:49;;;;;;;0.70;0.40;;;15.90;99.90;;;;;;5092904;28;20048;-82
2022/10/28 06:39:15;;;;;;;8.02;1.17;;;15.90;99.90;;;;;;5076031;28;20533;-82
2022/10/28 06:41:41;;;;;;;0.00;0.00;;;15.90;99.90;;;;;;5076123;28;20091;-83
2022/10/28 06:44:07;;;;;;;3.13;0.88;;;15.90;99.90;;;;;;5092934;28;20066;-80
2022/10/28 06:46:33;;;;;;;0.10;0.10;;;15.90;99.90;;;;;;5075821;28;20040;-83
2022/10/28 06:49:01;;;;;;;0.00;0.00;;;16.00;99.90;;;;;;5092970;28;20052;-83
2022/10/28 06:51:28;;;;;;;0.00;0.00;;;16.00;99.90;;;;;;5092999;28;20570;-82
2022/10/28 06:53:53;;;;;;;0.00;0.00;;;16.00;99.90;;;;;;5075973;28;20090;-83
2022/10/28 06:56:19;;;;;;;0.20;0.20;;;16.00;99.90;;;;;;5092860;28;20093;-89
2022/10/28 06:58:52;;;;;;;0.00;0.00;;;16.00;99.90;;;;;;5076206;28;20040;-84
2022/10/28 07:01:18;;;;;;;0.00;0.00;;;16.00;99.90;;;;;;5093237;28;20043;-83
2022/10/28 07:03:45;;;;;;;0.03;0.00;;;16.00;99.90;;;;;;5075764;28;20048;-84
2022/10/28 07:06:10;;;;;;;0.00;0.00;;;16.00;99.90;;;;;;5092680;28;20058;-81
2022/10/28 07:08:36;;;;;;;0.10;0.10;;;16.00;99.90;;;;;;5075945;28;20048;-81
2022/10/28 07:11:01;;;;;;;0.43;0.40;;;16.10;99.90;;;;;;5092738;28;20059;-82
2022/10/28 07:13:28;;;;;;;0.00;0.00;;;16.10;99.90;;;;;;5092880;28;20197;-82
2022/10/28 07:15:55;;;;;;;0.13;0.08;;;16.20;99.90;;;;;;5092715;28;20094;-82
2022/10/28 07:18:22;;;;;;;2.88;0.82;;;16.20;99.90;;;;;;5092698;28;20127;-82
2022/10/28 07:20:48;;;;;;;2.42;0.47;;;16.20;99.90;;;;;;5092260;28;20056;-82
2022/10/28 07:23:14;;;;;;;0.98;0.10;;;16.20;99.90;;;;;;5092600;28;20055;-82
2022/10/28 07:25:40;;;;;;;2.17;0.20;;;16.30;99.90;;;;;;5092515;28;20036;-82
2022/10/28 07:28:06;;;;;;;0.32;0.30;;;16.30;99.90;;;;;;5078040;28;20056;-82
2022/10/28 07:30:32;;;;;;;0.10;0.05;;;16.40;99.90;;;;;;5079425;28;20499;-82
2022/10/28 07:32:59;;;;;;;0.08;0.08;;;16.40;99.90;;;;;;5079864;28;20201;-82
2022/10/28 07:35:26;;;;;;;1.33;0.43;;;16.40;99.90;;;;;;5079735;28;20407;-81
2022/10/28 07:37:52;;;;;;;0.30;0.30;;;16.50;99.90;;;;;;5079275;28;20044;-83
2022/10/28 07:40:19;;;;;;;0.20;0.00;;;16.60;99.90;;;;;;5096216;28;20046;-85
2022/10/28 07:42:45;;;;;;;5.22;1.15;;;16.60;99.90;;;;;;5079237;28;20488;-82
2022/10/28 07:45:12;;;;;;;0.40;0.40;;;16.70;99.90;;;;;;5090507;28;20051;-82
2022/10/28 07:47:37;;;;;;;0.00;0.00;;;16.80;99.90;;;;;;5094590;28;20044;-83
2022/10/28 07:50:05;;;;;;;0.03;0.03;;;16.90;99.90;;;;;;5072684;28;20060;-83
2022/10/28 07:52:32;;;;;;;1.40;0.50;;;17.10;99.90;;;;;;5078031;28;20487;-84
2022/10/28 07:54:57;;;;;;;0.00;0.00;;;17.10;99.90;;;;;;5076985;28;20051;-82
2022/10/28 07:57:23;;;;;;;0.43;0.10;;;17.20;99.90;;;;;;5093969;28;20044;-82
2022/10/28 07:59:49;;;;;;;0.28;0.28;;;17.30;99.90;;;;;;5078139;28;20051;-82
2022/10/28 08:02:17;;;;;;;3.00;0.75;;;17.30;99.90;;;;;;5079324;28;20152;-82
2022/10/28 08:04:44;;;;;;;0.30;0.28;;;17.40;99.90;;;;;;5095703;28;20054;-82
2022/10/28 08:07:10;;;;;;;0.00;0.00;;;17.50;99.90;;;;;;5078848;28;20087;-82
2022/10/28 08:09:36;;;;;;;0.00;0.00;;;17.50;99.90;;;;;;5079172;28;20146;-82
2022/10/28 08:12:02;;;;;;;0.20;0.20;;;17.50;99.90;;;;;;5095877;28;20084;-82
2022/10/28 08:14:28;;;;;;;0.00;0.00;;;17.60;99.90;;;;;;5095779;28;20404;-83
2022/10/28 08:16:53;;;;;;;0.38;0.30;;;17.70;99.90;;;;;;5095771;28;20052;-82
2022/10/28 08:19:19;;;;;;;0.22;0.22;;;17.80;99.90;;;;;;5078696;28;20044;-82
2022/10/28 08:21:45;;;;;;;0.10;0.10;;;18.20;99.90;;;;;;5078794;28;20048;-82
2022/10/28 08:24:11;;;;;;;0.10;0.10;;;18.40;99.90;;;;;;5078953;28;20135;-83
2022/10/28 08:26:37;;;;;;;1.13;0.05;;;18.60;99.90;;;;;;5095375;28;20170;-82
2022/10/28 08:29:02;;;;;;;1.27;0.70;;;18.90;99.90;;;;;;5078356;28;20047;-82
2022/10/28 08:31:30;;;;;;;0.00;0.00;;;19.30;99.90;;;;;;5078527;28;20154;-82
2022/10/28 08:33:56;;;;;;;1.08;0.50;;;19.70;99.90;;;;;;5095294;28;20131;-83
2022/10/28 08:36:21;;;;;;;0.00;0.00;;;20.10;99.90;;;;;;5095561;28;20506;-82
2022/10/28 08:38:47;;;;;;;0.60;0.52;;;20.40;99.90;;;;;;5077246;28;20437;-83
2022/10/28 08:41:21;;;;;;;0.40;0.40;;;20.70;99.90;;;;;;5078326;28;20131;-82
2022/10/28 08:44:24;;;;;;;0.10;0.10;;;21.10;99.90;;;;;;5078489;28;20048;-82
2022/10/28 08:47:02;;;;;;;0.15;0.15;;;21.30;99.90;;;;;;5094984;28;20130;-83
2022/10/28 08:49:32;;;;;;;0.90;0.57;;;21.30;99.90;;;;;;5078489;28;20052;-82
2022/10/28 08:52:02;;;;;;;0.10;0.10;;;21.60;99.90;;;;;;5078420;28;20066;-82
2022/10/28 08:54:34;;;;;;;0.10;0.00;;;21.90;99.90;;;;;;5095227;28;20075;-82
2022/10/28 08:57:02;;;;;;;0.22;0.22;;;22.30;99.90;;;;;;5095168;28;20048;-82
2022/10/28 08:59:32;;;;;;;0.00;0.00;;;22.80;99.90;;;;;;5094829;28;20495;-82
2022/10/28 09:02:10;;;;;;;0.03;0.00;;;23.20;99.90;;;;;;5078373;28;20055;-82
2022/10/28 09:04:44;;;;;;;0.30;0.25;;;23.70;99.90;;;;;;5077923;28;20138;-82
2022/10/28 09:07:17;;;;;;;0.63;0.30;;;23.90;99.90;;;;;;5077237;28;20510;-81
2022/10/28 09:09:44;;;;;;;2.60;0.77;;;24.10;99.90;;;;;;5094693;28;20526;-81
2022/10/28 09:12:33;;;;;;;0.10;0.00;;;24.00;99.90;;;;;;5094651;28;20048;-82
2022/10/28 09:15:17;;;;;;;0.00;0.00;;;23.90;99.90;;;;;;5094763;28;20084;-82
2022/10/28 09:17:53;;;;;;;0.25;0.10;;;23.50;99.90;;;;;;5078198;28;20097;-82
2022/10/28 09:20:26;;;;;;;0.57;0.40;;;23.00;99.90;;;;;;5077370;28;20391;-82
2022/10/28 09:23:03;;;;;;;0.00;0.00;;;22.50;99.90;;;;;;5077850;28;20097;-82
2022/10/28 09:25:47;;;;;;;1.05;0.43;;;22.20;99.90;;;;;;5094694;28;20043;-82
2022/10/28 09:28:48;;;;;;;0.10;0.07;;;21.80;99.90;;;;;;5094278;28;20047;-83
2022/10/28 09:31:25;;;;;;;2.30;0.80;;;21.50;99.90;;;;;;5094681;28;20055;-82
2022/10/28 09:34:03;;;;;;;0.17;0.17;;;21.10;99.90;;;;;;5094429;28;20040;-82
2022/10/28 09:36:44;;;;;;;0.10;0.00;;;20.70;99.90;;;;;;5094524;28;20044;-82
2022/10/28 09:39:18;;;;;;;0.00;0.00;;;20.60;99.90;;;;;;5094232;28;20036;-82
2022/10/28 09:41:47;;;;;;;0.00;0.00;;;20.50;99.90;;;;;;5093947;28;20139;-82
2022/10/28 09:44:40;;;;;;;0.10;0.00;;;20.60;99.90;;;;;;5094016;28;20061;-82
2022/10/28 09:47:28;;;;;;;0.00;0.00;;;20.50;99.90;;;;;;5077641;28;20131;-82
2022/10/28 09:49:59;;;;;;;0.03;0.03;;;20.30;99.90;;;;;;5077222;28;20084;-82
2022/10/28 09:52:35;;;;;;;0.10;0.03;;;20.20;99.90;;;;;;5094032;28;20050;-82
2022/10/28 09:55:08;;;;;;;2.20;0.88;;;20.10;99.90;;;;;;5077132;28;20069;-82
2022/10/28 09:57:33;;;;;;;0.00;0.00;;;20.00;99.90;;;;;;5077164;28;20063;-82
2022/10/28 09:59:59;;;;;;;0.10;0.10;;;20.00;99.90;;;;;;5077038;28;20476;-82
2022/10/28 10:02:31;;;;;;;0.08;0.05;;;20.00;99.90;;;;;;5093743;28;20058;-82
2022/10/28 10:04:58;;;;;;;0.00;0.00;;;20.00;99.90;;;;;;5093687;28;20051;-82
2022/10/28 10:07:31;;;;;;;0.00;0.00;;;19.90;99.90;;;;;;5076442;28;20134;-82
2022/10/28 10:10:02;;;;;;;1.30;0.38;;;19.90;99.90;;;;;;5093912;28;20097;-82
2022/10/28 10:12:30;;;;;;;0.10;0.10;;;19.80;99.90;;;;;;5076897;28;20360;-82
2022/10/28 10:14:58;;;;;;;1.55;0.30;;;19.80;99.90;;;;;;5094250;28;20044;-82
2022/10/28 10:17:30;;;;;;;0.20;0.20;;;19.90;99.90;;;;;;5077104;28;20470;-82
2022/10/28 10:20:05;;;;;;;0.00;0.00;;;19.90;99.90;;;;;;5093460;28;20047;-82
2022/10/28 10:22:34;;;;;;;0.25;0.10;;;19.90;99.90;;;;;;5094108;28;20050;-82
2022/10/28 10:25:00;;;;;;;0.43;0.43;;;20.00;99.90;;;;;;5076546;28;20527;-81
2022/10/28 10:27:29;;;;;;;0.00;0.00;;;20.10;99.90;;;;;;5093128;28;20044;-81
2022/10/28 10:29:56;;;;;;;0.00;0.00;;;20.30;99.90;;;;;;5093250;28;20040;-82
2022/10/28 10:32:35;;;;;;;0.00;0.00;;;20.60;99.90;;;;;;5076388;28;20052;-82
2022/10/28 10:35:18;;;;;;;1.08;0.15;;;20.90;99.90;;;;;;5076801;28;20056;-83
2022/10/28 10:37:46;;;;;;;0.20;0.20;;;21.30;99.90;;;;;;5093612;28;20059;-82
2022/10/28 10:40:45;;;;;;;0.00;0.00;;;21.60;99.90;;;;;;5076515;28;20048;-82
2022/10/28 10:43:20;;;;;;;0.10;0.00;;;21.80;99.90;;;;;;5076021;28;20044;-81
2022/10/28 10:46:13;;;;;;;1.10;0.30;;;21.80;99.90;;;;;;5093289;28;20388;-82
2022/10/28 10:48:39;;;;;;;0.20;0.10;;;21.60;99.90;;;;;;5054936;28;20044;-82
2022/10/28 10:51:20;;;;;;;0.28;0.28;;;21.40;99.90;;;;;;5055103;28;20063;-82
2022/10/28 10:53:49;;;;;;;0.32;0.32;;;21.30;99.90;;;;;;5038442;28;20488;-82
2022/10/28 10:56:26;;;;;;;0.22;0.22;;;21.20;99.90;;;;;;5038188;28;20044;-82
2022/10/28 10:58:54;;;;;;;0.08;0.08;;;21.20;99.90;;;;;;5054823;28;20040;-82
2022/10/28 11:01:26;;;;;;;0.52;0.43;;;21.30;99.90;;;;;;5054536;28;20551;-83
2022/10/28 11:04:03;;;;;;;0.30;0.30;;;21.20;99.90;;;;;;5038182;28;20573;-82
2022/10/28 11:06:36;;;;;;;1.75;0.90;;;21.20;99.90;;;;;;5054683;28;20053;-82
2022/10/28 11:09:16;;;;;;;0.10;0.10;;;21.10;99.90;;;;;;5055007;28;20443;-82
2022/10/28 11:11:43;;;;;;;0.10;0.00;;;21.00;99.90;;;;;;5038353;28;20067;-82
2022/10/28 11:14:09;;;;;;;0.25;0.10;;;20.90;99.90;;;;;;5054862;28;20056;-82
2022/10/28 11:16:52;;;;;;;0.25;0.25;;;20.90;99.90;;;;;;5038237;28;20044;-82
2022/10/28 11:19:25;;;;;;;0.00;0.00;;;20.90;99.90;;;;;;5054938;28;20068;-82
2022/10/28 11:22:09;;;;;;;0.63;0.30;;;20.80;99.90;;;;;;5038360;28;20497;-82
2022/10/28 11:24:40;;;;;;;1.50;0.60;;;20.90;99.90;;;;;;5056438;28;20089;-82
2022/10/28 11:27:30;;;;;;;0.00;0.00;;;20.90;99.90;;;;;;5092429;28;20040;-82
2022/10/28 11:29:59;;;;;;;0.30;0.20;;;21.00;99.90;;;;;;5092506;28;20063;-82
2022/10/28 11:32:58;;;;;;;4.40;1.27;;;21.20;99.90;;;;;;5092183;28;20488;-82
2022/10/28 11:35:51;;;;;;;0.65;0.45;;;21.40;99.90;;;;;;5092731;28;20048;-82
2022/10/28 11:38:55;;;;;;;1.58;1.15;;;21.50;99.90;;;;;;5075949;28;20062;-82
2022/10/28 11:41:34;;;;;;;0.28;0.20;;;21.40;99.90;;;;;;5075562;28;20052;-82
2022/10/28 11:44:03;;;;;;;0.20;0.20;;;21.40;99.90;;;;;;5075838;28;20095;-82
2022/10/28 11:46:47;;;;;;;0.22;0.22;;;21.40;99.90;;;;;;5075327;28;20040;-81
2022/10/28 11:49:57;;;;;;;0.60;0.22;;;21.40;99.90;;;;;;5092634;28;20429;-82
2022/10/28 11:52:56;;;;;;;0.03;0.00;;;21.40;99.90;;;;;;5092329;28;20399;-82
2022/10/28 11:55:25;;;;;;;7.10;0.65;;;21.50;99.90;;;;;;5075363;28;20052;-81
2022/10/28 11:58:11;;;;;;;0.10;0.10;;;21.60;99.90;;;;;;5075401;28;20048;-82
2022/10/28 12:00:59;;;;;;;6.03;0.40;;;21.70;99.90;;;;;;5092866;28;20036;-82
2022/10/28 12:04:01;;;;;;;0.00;0.00;;;21.80;99.90;;;;;;5075650;28;20052;-82
2022/10/28 12:07:04;;;;;;;1.38;0.77;;;21.90;99.90;;;;;;5075475;28;20071;-82
2022/10/28 12:09:54;;;;;;;0.50;0.30;;;21.90;99.90;;;;;;5075476;28;20093;-82
2022/10/28 12:12:55;;;;;;;1.80;0.52;;;21.90;99.90;;;;;;5092358;28;20044;-82
2022/10/28 12:15:41;;;;;;;0.00;0.00;;;21.80;99.90;;;;;;5079134;28;20051;-82
2022/10/28 12:18:26;;;;;;;1.08;0.30;;;21.70;99.90;;;;;;5095876;28;20048;-82
2022/10/28 12:21:08;;;;;;;0.20;0.20;;;21.60;99.90;;;;;;5095755;28;20051;-82
2022/10/28 12:23:37;;;;;;;0.65;0.30;;;21.60;99.90;;;;;;5079039;28;20093;-81
2022/10/28 12:26:07;;;;;;;0.70;0.50;;;21.50;99.90;;;;;;5095477;28;20051;-82
2022/10/28 12:28:47;;;;;;;0.40;0.40;;;21.60;99.90;;;;;;5078696;28;20071;-82
2022/10/28 12:31:24;;;;;;;0.35;0.03;;;21.50;99.90;;;;;;5078641;28;20055;-82
2022/10/28 12:33:54;;;;;;;2.92;0.95;;;21.50;99.90;;;;;;5079435;28;20197;-82
2022/10/28 12:36:58;;;;;;;0.10;0.10;;;21.50;99.90;;;;;;5095509;28;20055;-82
2022/10/28 12:39:32;;;;;;;0.10;0.10;;;21.50;99.90;;;;;;5057207;28;20537;-82
2022/10/28 12:42:22;;;;;;;0.20;0.20;;;21.50;99.90;;;;;;5040323;28;20059;-82
2022/10/28 12:44:48;;;;;;;0.00;0.00;;;21.50;99.90;;;;;;5057764;28;20049;-82
2022/10/28 12:47:26;;;;;;;0.00;0.00;;;21.50;99.90;;;;;;5040449;28;20095;-82
2022/10/28 12:50:19;;;;;;;1.08;0.30;;;21.50;99.90;;;;;;5057301;28;20052;-82
2022/10/28 12:52:51;;;;;;;0.00;0.00;;;21.40;99.90;;;;;;4997688;28;20053;-81
2022/10/28 12:55:29;;;;;;;0.00;0.00;;;21.40;99.90;;;;;;4997794;28;20065;-82
2022/10/28 12:58:04;;;;;;;0.10;0.10;;;21.30;99.90;;;;;;4997744;28;20113;-82
2022/10/28 13:00:35;;;;;;;0.15;0.15;;;21.30;99.90;;;;;;4981458;28;20053;-82
2022/10/28 13:03:06;;;;;;;0.08;0.00;;;21.20;99.90;;;;;;4981322;28;20065;-82
2022/10/28 13:05:40;;;;;;;0.52;0.10;;;21.20;99.90;;;;;;4981437;28;20087;-82
2022/10/28 13:08:12;;;;;;;0.00;0.00;;;21.20;99.90;;;;;;4981295;28;20050;-82
2022/10/28 13:10:52;;;;;;;0.10;0.10;;;21.20;99.90;;;;;;4997325;28;20065;-82